Wakayoshi Maru No.3 — JD3947 — position and weather

sailwx.info

Track history (hours):
 
Tides and Currents Weather Stations Pressure Air Temp Water Temp Dewpoint Dewpoint Depression Visibility Wind Speed Wind Dir Waves Ship Positions

Wakayoshi Maru No.3

Last reported at 2018-Apr-27 02:31 UTC. Time now 2018-Apr-27 02:48 UTC.
Position N 35°20' E 139°43'.

Length 64 m; draft 4.5 m.

Type: Tanker. MMSI: 431007002.

Date/timePositionNaut miles runAvg speedWind from/ knotsBaromVisibWave heightAir tempDewpointWater temp
2018-Apr-27 02:31N 35°20' E 139°43'510.4
2018-Apr-27 02:00N 35°25' E 139°44'611.6
2018-Apr-27 01:30N 35°28' E 139°50'611.3
2018-Apr-27 00:59N 35°30' E 139°57'4 8.7
2018-Apr-27 00:31N 35°30' E 140°02'0 0.0
2018-Apr-26 22:55N 35°30' E 140°02'0 0.0
2018-Apr-26 22:28N 35°30' E 140°02'0 0.1
2018-Apr-26 21:58N 35°30' E 140°02'3 5.3
2018-Apr-26 21:27N 35°31' E 139°59'0 0.0
2018-Apr-26 20:57N 35°31' E 139°59'0 0.0
2018-Apr-26 20:27N 35°31' E 139°59'0 0.0
2018-Apr-26 19:57N 35°32' E 139°59'0 0.1
2018-Apr-26 19:30N 35°32' E 139°59'0 0.1
2018-Apr-26 18:57N 35°32' E 139°59'0 0.1
2018-Apr-26 18:30N 35°32' E 139°59'0 0.0
2018-Apr-26 18:00N 35°32' E 139°59'0 0.0
2018-Apr-26 17:15N 35°32' E 139°59'0 0.0
2018-Apr-26 16:57N 35°32' E 139°59'0 0.0
2018-Apr-26 16:30N 35°32' E 139°59'2 3.5
2018-Apr-26 15:59N 35°31' E 139°57'612.3
2018-Apr-26 15:30N 35°28' E 139°51'612.4
2018-Apr-26 15:00N 35°23' E 139°46'611.6
2018-Apr-26 14:30N 35°17' E 139°45'611.9
2018-Apr-26 14:00N 35°12' E 139°47'612.2
2018-Apr-26 13:30N 35°06' E 139°45'612.6
2018-Apr-26 13:00N 35°01' E 139°41'714.1
2018-Apr-26 12:30N 34°57' E 139°33'714.7
2018-Apr-26 12:00N 34°53' E 139°25'815.4
2018-Apr-26 11:30N 34°49' E 139°18'714.8
2018-Apr-26 11:00N 34°44' E 139°11'714.5
2018-Apr-26 10:31N 34°40' E 139°04'714.4
2018-Apr-26 10:01N 34°36' E 138°57'713.4
2018-Apr-26 09:30N 34°35' E 138°48'611.8
2018-Apr-26 09:00N 34°40' E 138°43'611.2
2018-Apr-26 08:30N 34°45' E 138°41'611.5
2018-Apr-26 08:00N 34°50' E 138°38'611.6
2018-Apr-26 07:30N 34°55' E 138°35'612.1
2018-Apr-26 07:00N 35°01' E 138°33'2 4.7
2018-Apr-26 06:30N 35°00' E 138°30'0 0.7
2018-Apr-26 05:58N 34°60' E 138°30'0 0.0
2018-Apr-26 05:28N 34°60' E 138°30'0 0.0
2018-Apr-26 04:58N 34°60' E 138°30'0 0.0
2018-Apr-26 04:28N 34°60' E 138°30'0 0.0
2018-Apr-26 03:58N 34°60' E 138°30'0 0.0
2018-Apr-26 03:28N 34°60' E 138°30'0 0.0
2018-Apr-26 02:58N 34°60' E 138°30'0 0.0
2018-Apr-26 02:28N 34°60' E 138°30'1 3.3
2018-Apr-26 02:00N 35°01' E 138°30'5 9.2
2018-Apr-26 01:30N 34°58' E 138°34'611.3
2018-Apr-26 01:00N 34°53' E 138°37'611.5
2018-Apr-26 00:30N 34°48' E 138°40'611.3
2018-Apr-26 00:00N 34°42' E 138°42'511.0
2018-Apr-25 23:30N 34°37' E 138°45'5 9.3
2018-Apr-25 23:00N 34°35' E 138°50'4 8.6
2018-Apr-25 22:30N 34°36' E 138°55'6 8.9
2018-Apr-25 21:50N 34°39' E 139°01'4 9.7
2018-Apr-25 21:28N 34°41' E 139°05'5 8.8
2018-Apr-25 20:54N 34°45' E 139°09'3 8.2
2018-Apr-25 20:30N 34°47' E 139°12'9 8.4
2018-Apr-25 19:25N 34°52' E 139°21'4 8.0
2018-Apr-25 18:54N 34°55' E 139°25'5 8.5
2018-Apr-25 18:21N 34°58' E 139°29'4 9.6
2018-Apr-25 17:57N 35°01' E 139°32'510.3
2018-Apr-25 17:30N 35°04' E 139°37'610.9
2018-Apr-25 17:00N 35°07' E 139°42'510.6
2018-Apr-25 16:30N 35°11' E 139°45'5 9.6
2018-Apr-25 16:00N 35°16' E 139°45'5 9.9
2018-Apr-25 15:31N 35°21' E 139°42'5 9.8
2018-Apr-25 15:00N 35°25' E 139°44'510.8
2018-Apr-25 14:31N 35°28' E 139°50'5 9.4
2018-Apr-25 14:00N 35°29' E 139°55'0 0.1
2018-Apr-25 13:28N 35°29' E 139°56'0 0.0
2018-Apr-25 12:58N 35°29' E 139°56'0 0.0
2018-Apr-25 12:25N 35°29' E 139°56'0 0.0
2018-Apr-25 11:58N 35°29' E 139°56'0 0.0
2018-Apr-25 11:22N 35°29' E 139°56'0 0.0
2018-Apr-25 10:55N 35°29' E 139°56'0 0.0
2018-Apr-25 10:16N 35°29' E 139°56'0 0.0
2018-Apr-25 09:52N 35°29' E 139°56'0 0.0
2018-Apr-25 09:25N 35°29' E 139°56'0 0.0
2018-Apr-25 08:55N 35°29' E 139°56'0 0.0
2018-Apr-25 08:28N 35°29' E 139°56'0 0.0
2018-Apr-25 07:49N 35°29' E 139°56'0 0.1
2018-Apr-25 07:28N 35°29' E 139°56'0 0.1
2018-Apr-25 06:55N 35°29' E 139°56'0 0.1
2018-Apr-25 06:28N 35°29' E 139°56'0 0.0
2018-Apr-25 05:58N 35°29' E 139°56'0 0.1
2018-Apr-25 05:28N 35°29' E 139°56'0 0.1
2018-Apr-25 04:55N 35°29' E 139°56'0 0.0
2018-Apr-25 04:28N 35°29' E 139°56'0 0.1
2018-Apr-25 03:46N 35°29' E 139°56'0 0.0
2018-Apr-25 03:28N 35°29' E 139°56'0 0.0
2018-Apr-25 02:55N 35°29' E 139°56'0 0.0
2018-Apr-25 02:22N 35°29' E 139°56'0 0.4
2018-Apr-25 02:00N 35°29' E 139°56'5 9.8
2018-Apr-25 01:30N 35°31' E 140°01'1 1.5
2018-Apr-25 00:34N 35°31' E 140°03'0 0.0
2018-Apr-25 00:28N 35°31' E 140°03'0 0.0
2018-Apr-24 23:52N 35°31' E 140°03'0 0.0
2018-Apr-24 23:19N 35°31' E 140°03'0 0.0
2018-Apr-24 22:52N 35°31' E 140°03'0 0.0
2018-Apr-24 22:28N 35°31' E 140°03'2 3.7
2018-Apr-24 22:00N 35°31' E 140°01'5 8.6
2018-Apr-24 21:28N 35°29' E 139°56'0 0.1
2018-Apr-24 20:55N 35°29' E 139°56'0 0.0
2018-Apr-24 20:22N 35°29' E 139°56'0 0.0
2018-Apr-24 19:49N 35°29' E 139°56'0 0.0
2018-Apr-24 19:25N 35°29' E 139°56'0 0.0
2018-Apr-24 18:55N 35°29' E 139°56'0 0.0
2018-Apr-24 18:16N 35°29' E 139°56'0 0.0
2018-Apr-24 17:58N 35°29' E 139°56'0 0.0
2018-Apr-24 17:22N 35°29' E 139°56'0 0.0
2018-Apr-24 16:58N 35°29' E 139°56'0 0.0
2018-Apr-24 16:22N 35°29' E 139°56'0 0.0
2018-Apr-24 15:52N 35°29' E 139°56'0 0.0
2018-Apr-24 15:25N 35°29' E 139°56'0 0.0
2018-Apr-24 14:52N 35°29' E 139°56'0 0.0
2018-Apr-24 14:22N 35°29' E 139°56'0 0.0
2018-Apr-24 13:49N 35°29' E 139°56'0 0.1
2018-Apr-24 13:25N 35°29' E 139°56'0 0.0
2018-Apr-24 12:58N 35°29' E 139°56'0 0.0
2018-Apr-24 12:19N 35°29' E 139°56'0 0.0
2018-Apr-24 11:55N 35°29' E 139°56'0 0.0
2018-Apr-24 11:19N 35°29' E 139°56'0 0.0
2018-Apr-24 10:58N 35°29' E 139°56'0 0.0
2018-Apr-24 10:25N 35°29' E 139°56'0 0.0
2018-Apr-24 09:52N 35°29' E 139°56'0 0.0
2018-Apr-24 09:19N 35°29' E 139°56'0 0.1
2018-Apr-24 08:58N 35°29' E 139°56'0 0.0
2018-Apr-24 08:25N 35°29' E 139°56'0 0.0
2018-Apr-24 07:58N 35°29' E 139°56'0 0.0
2018-Apr-24 06:49N 35°29' E 139°56'0 0.0
2018-Apr-24 06:25N 35°29' E 139°56'0 0.0
2018-Apr-24 05:58N 35°29' E 139°56'0 0.0
2018-Apr-24 05:30N 35°29' E 139°56'2 3.7
2018-Apr-24 05:01N 35°29' E 139°54'612.0
2018-Apr-24 04:30N 35°25' E 139°48'2 4.1
2018-Apr-24 03:59N 35°25' E 139°45'0 0.0
2018-Apr-24 03:29N 35°25' E 139°45'0 0.0
2018-Apr-24 02:59N 35°25' E 139°45'0 0.0
2018-Apr-24 02:29N 35°25' E 139°45'0 0.0
2018-Apr-24 02:00N 35°25' E 139°45'510.0
2018-Apr-24 01:30N 35°29' E 139°42'1 1.8
2018-Apr-24 01:00N 35°28' E 139°42'4 7.7
2018-Apr-24 00:31N 35°24' E 139°44'1 1.6
2018-Apr-24 00:00N 35°24' E 139°44'0 0.0
2018-Apr-23 23:31N 35°24' E 139°44'0 0.0
2018-Apr-23 23:00N 35°24' E 139°44'0 0.1
2018-Apr-23 22:27N 35°24' E 139°44'0 0.0
2018-Apr-23 22:01N 35°24' E 139°44'0 0.0
2018-Apr-23 21:30N 35°24' E 139°44'0 0.0
2018-Apr-23 21:01N 35°24' E 139°44'0 0.0
2018-Apr-23 20:30N 35°24' E 139°44'0 0.0
2018-Apr-23 20:01N 35°24' E 139°44'0 0.0
2018-Apr-23 19:30N 35°24' E 139°44'0 0.0
2018-Apr-23 19:00N 35°24' E 139°44'0 0.0
2018-Apr-23 18:28N 35°24' E 139°44'0 0.0
2018-Apr-23 18:00N 35°24' E 139°44'0 0.0
2018-Apr-23 17:30N 35°24' E 139°44'0 0.0
2018-Apr-23 17:00N 35°24' E 139°44'0 0.0
2018-Apr-23 16:30N 35°24' E 139°44'0 0.0
2018-Apr-23 16:00N 35°24' E 139°44'0 0.0
2018-Apr-23 15:30N 35°24' E 139°44'0 0.0
2018-Apr-23 15:00N 35°24' E 139°44'0 0.0
2018-Apr-23 14:30N 35°24' E 139°44'0 0.0
2018-Apr-23 14:00N 35°24' E 139°44'0 0.1
2018-Apr-23 13:30N 35°24' E 139°44'0 0.0
2018-Apr-23 13:00N 35°24' E 139°44'0 0.0
2018-Apr-23 12:30N 35°24' E 139°44'0 0.1
2018-Apr-23 12:01N 35°24' E 139°44'510.3
2018-Apr-23 11:30N 35°18' E 139°44'611.8
2018-Apr-23 11:00N 35°13' E 139°47'612.1
2018-Apr-23 10:30N 35°07' E 139°46'612.0
2018-Apr-23 10:00N 35°03' E 139°40'612.6
2018-Apr-23 09:30N 34°59' E 139°34'713.4
2018-Apr-23 08:59N 34°55' E 139°27'714.1
2018-Apr-23 08:30N 34°51' E 139°20'814.0
2018-Apr-23 07:57N 34°46' E 139°13'614.3
2018-Apr-23 07:30N 34°42' E 139°07'713.0
2018-Apr-23 06:58N 34°38' E 139°01'613.0
2018-Apr-23 06:29N 34°35' E 138°54'611.8
2018-Apr-23 05:58N 34°36' E 138°47'612.3
2018-Apr-23 05:30N 34°41' E 138°43'611.8
2018-Apr-23 05:01N 34°47' E 138°42'611.7
2018-Apr-23 04:30N 34°52' E 138°42'611.9
2018-Apr-23 04:00N 34°58' E 138°42'611.9
2018-Apr-23 03:30N 35°04' E 138°42'4 5.6
2018-Apr-23 02:46N 35°09' E 138°42'0 0.0
2018-Apr-23 02:22N 35°09' E 138°42'0 0.0
2018-Apr-23 01:40N 35°09' E 138°42'0 0.0
2018-Apr-23 00:40N 35°09' E 138°42'0 0.2
2018-Apr-23 00:28N 35°09' E 138°42'0 1.0
2018-Apr-23 00:00N 35°08' E 138°42'2 3.7
2018-Apr-22 23:30N 35°06' E 138°41'5 9.2
2018-Apr-22 23:01N 35°04' E 138°36'3 6.8
2018-Apr-22 22:30N 35°03' E 138°32'0 0.0
2018-Apr-22 22:00N 35°03' E 138°32'0 0.0
2018-Apr-22 21:30N 35°03' E 138°32'0 0.0
2018-Apr-22 21:00N 35°03' E 138°32'0 0.0
2018-Apr-22 20:31N 35°03' E 138°32'0 0.0
2018-Apr-22 20:00N 35°03' E 138°32'0 0.0
2018-Apr-22 19:30N 35°03' E 138°32'0 0.1
2018-Apr-22 19:00N 35°03' E 138°32'0 0.0
2018-Apr-22 18:27N 35°03' E 138°32'0 0.0
2018-Apr-22 17:57N 35°03' E 138°32'0 0.0
2018-Apr-22 17:30N 35°03' E 138°32'0 0.0
2018-Apr-22 16:48N 35°03' E 138°32'0 0.0
2018-Apr-22 16:30N 35°03' E 138°32'0 0.0
2018-Apr-22 16:00N 35°03' E 138°32'0 0.0
2018-Apr-22 15:30N 35°03' E 138°32'0 0.0
2018-Apr-22 15:00N 35°03' E 138°32'0 0.0
2018-Apr-22 14:30N 35°03' E 138°32'1 1.1
2018-Apr-22 14:01N 35°02' E 138°32'611.4
2018-Apr-22 13:31N 34°57' E 138°35'611.3
2018-Apr-22 13:01N 34°52' E 138°38'611.5
2018-Apr-22 12:30N 34°47' E 138°40'610.9
2018-Apr-22 11:57N 34°41' E 138°43'610.5
2018-Apr-22 11:25N 34°36' E 138°47'6 9.5
2018-Apr-22 10:45N 34°35' E 138°54'3 9.7
2018-Apr-22 10:29N 34°36' E 138°57'611.6
2018-Apr-22 10:00N 34°40' E 139°02'710.9
2018-Apr-22 09:22N 34°45' E 139°09'410.5
2018-Apr-22 09:00N 34°47' E 139°12'5 9.4
2018-Apr-22 08:30N 34°50' E 139°17'4 8.4
2018-Apr-22 08:00N 34°52' E 139°21'4 8.2
2018-Apr-22 07:30N 34°55' E 139°25'4 8.8
2018-Apr-22 07:00N 34°58' E 139°29'5 9.6
2018-Apr-22 06:30N 35°01' E 139°33'510.0
2018-Apr-22 06:00N 35°04' E 139°38'510.4
2018-Apr-22 05:30N 35°08' E 139°43'611.4
2018-Apr-22 05:00N 35°13' E 139°46'611.4
2018-Apr-22 04:30N 35°18' E 139°44'611.2
2018-Apr-22 04:00N 35°23' E 139°42'611.4
2018-Apr-22 03:30N 35°27' E 139°48'611.3
2018-Apr-22 03:00N 35°30' E 139°54'611.1
2018-Apr-22 02:31N 35°30' E 140°00'0 0.0
2018-Apr-22 02:00N 35°30' E 140°00'1 2.1
2018-Apr-22 01:24N 35°30' E 140°02'0 0.0
2018-Apr-22 01:00N 35°30' E 140°02'0 0.0
2018-Apr-22 00:30N 35°30' E 140°02'0 0.0
2018-Apr-22 00:00N 35°30' E 140°02'0 0.0
2018-Apr-21 23:30N 35°30' E 140°02'0 0.2
2018-Apr-21 23:00N 35°30' E 140°02'2 4.6
2018-Apr-21 22:31N 35°31' E 139°60'2 3.9
2018-Apr-21 22:00N 35°33' E 140°01'5 9.4
2018-Apr-21 21:30N 35°36' E 140°06'1 1.0
2018-Apr-21 21:00N 35°36' E 140°06'0 0.0
2018-Apr-21 20:30N 35°36' E 140°06'0 0.0
2018-Apr-21 20:00N 35°36' E 140°06'0 0.0
2018-Apr-21 19:30N 35°36' E 140°06'0 0.0
2018-Apr-21 19:00N 35°36' E 140°06'0 0.0
2018-Apr-21 18:30N 35°36' E 140°06'0 0.0
2018-Apr-21 18:00N 35°36' E 140°06'0 0.0
2018-Apr-21 17:30N 35°36' E 140°06'0 0.0
2018-Apr-21 17:00N 35°36' E 140°06'0 0.0
2018-Apr-21 16:30N 35°36' E 140°06'0 0.0
2018-Apr-21 16:00N 35°36' E 140°06'0 0.0
2018-Apr-21 15:30N 35°36' E 140°06'0 0.0
2018-Apr-21 15:00N 35°36' E 140°06'0 0.0
2018-Apr-21 14:30N 35°36' E 140°06'0 0.0
2018-Apr-21 14:00N 35°36' E 140°06'0 0.0
2018-Apr-21 13:30N 35°36' E 140°06'0 0.0
2018-Apr-21 13:00N 35°36' E 140°06'0 0.0
2018-Apr-21 12:30N 35°36' E 140°06'0 0.0
2018-Apr-21 12:00N 35°36' E 140°06'0 0.0
2018-Apr-21 11:30N 35°36' E 140°06'0 0.0
2018-Apr-21 11:00N 35°36' E 140°06'0 0.0
2018-Apr-21 10:30N 35°36' E 140°06'0 0.0
2018-Apr-21 10:00N 35°36' E 140°06'0 0.0
2018-Apr-21 09:30N 35°36' E 140°06'0 0.0
2018-Apr-21 09:00N 35°36' E 140°06'0 0.0
2018-Apr-21 08:30N 35°36' E 140°06'0 0.0
2018-Apr-21 08:00N 35°36' E 140°06'0 0.0
2018-Apr-21 07:30N 35°36' E 140°06'0 0.0
2018-Apr-21 07:00N 35°36' E 140°06'0 0.0
2018-Apr-21 06:30N 35°36' E 140°06'0 0.0
2018-Apr-21 06:00N 35°36' E 140°06'0 0.0
2018-Apr-21 05:30N 35°36' E 140°06'0 0.0
2018-Apr-21 05:00N 35°36' E 140°06'0 0.0
2018-Apr-21 04:30N 35°36' E 140°06'0 0.0
2018-Apr-21 04:00N 35°36' E 140°06'0 0.0
2018-Apr-21 03:30N 35°36' E 140°06'0 0.0
2018-Apr-21 03:00N 35°36' E 140°06'0 0.0
2018-Apr-21 02:30N 35°36' E 140°06'0 0.0
2018-Apr-21 02:00N 35°36' E 140°06'0 0.0
2018-Apr-21 01:30N 35°36' E 140°06'0 0.0
2018-Apr-21 01:00N 35°36' E 140°06'0 0.0
2018-Apr-21 00:30N 35°36' E 140°06'0 0.0
2018-Apr-21 00:00N 35°36' E 140°06'0 0.3
2018-Apr-20 23:30N 35°36' E 140°06'2 4.5
2018-Apr-20 22:59N 35°35' E 140°04'0 0.0
2018-Apr-20 22:29N 35°35' E 140°04'0 0.0
2018-Apr-20 21:59N 35°35' E 140°04'0 0.0
2018-Apr-20 21:29N 35°35' E 140°04'0 0.0
2018-Apr-20 20:59N 35°35' E 140°04'0 0.0
2018-Apr-20 20:29N 35°35' E 140°04'2 4.2
2018-Apr-20 20:00N 35°34' E 140°02'612.1
2018-Apr-20 19:30N 35°31' E 139°55'612.0
2018-Apr-20 19:01N 35°27' E 139°49'611.7
2018-Apr-20 18:30N 35°22' E 139°45'611.0
2018-Apr-20 18:00N 35°17' E 139°46'611.1
2018-Apr-20 17:30N 35°11' E 139°47'611.8
2018-Apr-20 17:00N 35°05' E 139°45'611.8
2018-Apr-20 16:30N 34°60' E 139°44'610.5
2018-Apr-20 15:54N 34°54' E 139°47'1011.2
2018-Apr-20 15:03N 34°54' E 139°59'311.7
2018-Apr-20 14:47N 34°56' E 140°02'411.5
2018-Apr-20 14:29N 34°58' E 140°06'611.3
2018-Apr-20 13:57N 35°01' E 140°12'1410.5
2018-Apr-20 12:35N 35°10' E 140°26'210.3
2018-Apr-20 12:21N 35°12' E 140°27'  
Track history (hours):
 
Tides and Currents Weather Stations Pressure Air Temp Water Temp Dewpoint Dewpoint Depression Visibility Wind Speed Wind Dir Waves Ship Positions

Wakayoshi Maru No.3

Last reported at 2018-Apr-27 02:31 UTC. Time now 2018-Apr-27 02:48 UTC.
Position N 35°20' E 139°43'.

Length 64 m; draft 4.5 m.

Type: Tanker. MMSI: 431007002.

Date/timePositionNaut miles runAvg speedWind from/ knotsBaromVisibWave heightAir tempDewpointWater temp
2018-Apr-27 02:31N 35°20' E 139°43'510.4
2018-Apr-27 02:00N 35°25' E 139°44'611.6
2018-Apr-27 01:30N 35°28' E 139°50'611.3
2018-Apr-27 00:59N 35°30' E 139°57'4 8.7
2018-Apr-27 00:31N 35°30' E 140°02'0 0.0
2018-Apr-26 22:55N 35°30' E 140°02'0 0.0
2018-Apr-26 22:28N 35°30' E 140°02'0 0.1
2018-Apr-26 21:58N 35°30' E 140°02'3 5.3
2018-Apr-26 21:27N 35°31' E 139°59'0 0.0
2018-Apr-26 20:57N 35°31' E 139°59'0 0.0
2018-Apr-26 20:27N 35°31' E 139°59'0 0.0
2018-Apr-26 19:57N 35°32' E 139°59'0 0.1
2018-Apr-26 19:30N 35°32' E 139°59'0 0.1
2018-Apr-26 18:57N 35°32' E 139°59'0 0.1
2018-Apr-26 18:30N 35°32' E 139°59'0 0.0
2018-Apr-26 18:00N 35°32' E 139°59'0 0.0
2018-Apr-26 17:15N 35°32' E 139°59'0 0.0
2018-Apr-26 16:57N 35°32' E 139°59'0 0.0
2018-Apr-26 16:30N 35°32' E 139°59'2 3.5
2018-Apr-26 15:59N 35°31' E 139°57'612.3
2018-Apr-26 15:30N 35°28' E 139°51'612.4
2018-Apr-26 15:00N 35°23' E 139°46'611.6
2018-Apr-26 14:30N 35°17' E 139°45'611.9
2018-Apr-26 14:00N 35°12' E 139°47'612.2
2018-Apr-26 13:30N 35°06' E 139°45'612.6
2018-Apr-26 13:00N 35°01' E 139°41'714.1
2018-Apr-26 12:30N 34°57' E 139°33'714.7
2018-Apr-26 12:00N 34°53' E 139°25'815.4
2018-Apr-26 11:30N 34°49' E 139°18'714.8
2018-Apr-26 11:00N 34°44' E 139°11'714.5
2018-Apr-26 10:31N 34°40' E 139°04'714.4
2018-Apr-26 10:01N 34°36' E 138°57'713.4
2018-Apr-26 09:30N 34°35' E 138°48'611.8
2018-Apr-26 09:00N 34°40' E 138°43'611.2
2018-Apr-26 08:30N 34°45' E 138°41'611.5
2018-Apr-26 08:00N 34°50' E 138°38'611.6
2018-Apr-26 07:30N 34°55' E 138°35'612.1
2018-Apr-26 07:00N 35°01' E 138°33'2 4.7
2018-Apr-26 06:30N 35°00' E 138°30'0 0.7
2018-Apr-26 05:58N 34°60' E 138°30'0 0.0
2018-Apr-26 05:28N 34°60' E 138°30'0 0.0
2018-Apr-26 04:58N 34°60' E 138°30'0 0.0
2018-Apr-26 04:28N 34°60' E 138°30'0 0.0
2018-Apr-26 03:58N 34°60' E 138°30'0 0.0
2018-Apr-26 03:28N 34°60' E 138°30'0 0.0
2018-Apr-26 02:58N 34°60' E 138°30'0 0.0
2018-Apr-26 02:28N 34°60' E 138°30'1 3.3
2018-Apr-26 02:00N 35°01' E 138°30'5 9.2
2018-Apr-26 01:30N 34°58' E 138°34'611.3
2018-Apr-26 01:00N 34°53' E 138°37'611.5
2018-Apr-26 00:30N 34°48' E 138°40'611.3
2018-Apr-26 00:00N 34°42' E 138°42'511.0
2018-Apr-25 23:30N 34°37' E 138°45'5 9.3
2018-Apr-25 23:00N 34°35' E 138°50'4 8.6
2018-Apr-25 22:30N 34°36' E 138°55'6 8.9
2018-Apr-25 21:50N 34°39' E 139°01'4 9.7
2018-Apr-25 21:28N 34°41' E 139°05'5 8.8
2018-Apr-25 20:54N 34°45' E 139°09'3 8.2
2018-Apr-25 20:30N 34°47' E 139°12'9 8.4
2018-Apr-25 19:25N 34°52' E 139°21'4 8.0
2018-Apr-25 18:54N 34°55' E 139°25'5 8.5
2018-Apr-25 18:21N 34°58' E 139°29'4 9.6
2018-Apr-25 17:57N 35°01' E 139°32'510.3
2018-Apr-25 17:30N 35°04' E 139°37'610.9
2018-Apr-25 17:00N 35°07' E 139°42'510.6
2018-Apr-25 16:30N 35°11' E 139°45'5 9.6
2018-Apr-25 16:00N 35°16' E 139°45'5 9.9
2018-Apr-25 15:31N 35°21' E 139°42'5 9.8
2018-Apr-25 15:00N 35°25' E 139°44'510.8
2018-Apr-25 14:31N 35°28' E 139°50'5 9.4
2018-Apr-25 14:00N 35°29' E 139°55'0 0.1
2018-Apr-25 13:28N 35°29' E 139°56'0 0.0
2018-Apr-25 12:58N 35°29' E 139°56'0 0.0
2018-Apr-25 12:25N 35°29' E 139°56'0 0.0
2018-Apr-25 11:58N 35°29' E 139°56'0 0.0
2018-Apr-25 11:22N 35°29' E 139°56'0 0.0
2018-Apr-25 10:55N 35°29' E 139°56'0 0.0
2018-Apr-25 10:16N 35°29' E 139°56'0 0.0
2018-Apr-25 09:52N 35°29' E 139°56'0 0.0
2018-Apr-25 09:25N 35°29' E 139°56'0 0.0
2018-Apr-25 08:55N 35°29' E 139°56'0 0.0
2018-Apr-25 08:28N 35°29' E 139°56'0 0.0
2018-Apr-25 07:49N 35°29' E 139°56'0 0.1
2018-Apr-25 07:28N 35°29' E 139°56'0 0.1
2018-Apr-25 06:55N 35°29' E 139°56'0 0.1
2018-Apr-25 06:28N 35°29' E 139°56'0 0.0
2018-Apr-25 05:58N 35°29' E 139°56'0 0.1
2018-Apr-25 05:28N 35°29' E 139°56'0 0.1
2018-Apr-25 04:55N 35°29' E 139°56'0 0.0
2018-Apr-25 04:28N 35°29' E 139°56'0 0.1
2018-Apr-25 03:46N 35°29' E 139°56'0 0.0
2018-Apr-25 03:28N 35°29' E 139°56'0 0.0
2018-Apr-25 02:55N 35°29' E 139°56'0 0.0
2018-Apr-25 02:22N 35°29' E 139°56'0 0.4
2018-Apr-25 02:00N 35°29' E 139°56'5 9.8
2018-Apr-25 01:30N 35°31' E 140°01'1 1.5
2018-Apr-25 00:34N 35°31' E 140°03'0 0.0
2018-Apr-25 00:28N 35°31' E 140°03'0 0.0
2018-Apr-24 23:52N 35°31' E 140°03'0 0.0
2018-Apr-24 23:19N 35°31' E 140°03'0 0.0
2018-Apr-24 22:52N 35°31' E 140°03'0 0.0
2018-Apr-24 22:28N 35°31' E 140°03'2 3.7
2018-Apr-24 22:00N 35°31' E 140°01'5 8.6
2018-Apr-24 21:28N 35°29' E 139°56'0 0.1
2018-Apr-24 20:55N 35°29' E 139°56'0 0.0
2018-Apr-24 20:22N 35°29' E 139°56'0 0.0
2018-Apr-24 19:49N 35°29' E 139°56'0 0.0
2018-Apr-24 19:25N 35°29' E 139°56'0 0.0
2018-Apr-24 18:55N 35°29' E 139°56'0 0.0
2018-Apr-24 18:16N 35°29' E 139°56'0 0.0
2018-Apr-24 17:58N 35°29' E 139°56'0 0.0
2018-Apr-24 17:22N 35°29' E 139°56'0 0.0
2018-Apr-24 16:58N 35°29' E 139°56'0 0.0
2018-Apr-24 16:22N 35°29' E 139°56'0 0.0
2018-Apr-24 15:52N 35°29' E 139°56'0 0.0
2018-Apr-24 15:25N 35°29' E 139°56'0 0.0
2018-Apr-24 14:52N 35°29' E 139°56'0 0.0
2018-Apr-24 14:22N 35°29' E 139°56'0 0.0
2018-Apr-24 13:49N 35°29' E 139°56'0 0.1
2018-Apr-24 13:25N 35°29' E 139°56'0 0.0
2018-Apr-24 12:58N 35°29' E 139°56'0 0.0
2018-Apr-24 12:19N 35°29' E 139°56'0 0.0
2018-Apr-24 11:55N 35°29' E 139°56'0 0.0
2018-Apr-24 11:19N 35°29' E 139°56'0 0.0
2018-Apr-24 10:58N 35°29' E 139°56'0 0.0
2018-Apr-24 10:25N 35°29' E 139°56'0 0.0
2018-Apr-24 09:52N 35°29' E 139°56'0 0.0
2018-Apr-24 09:19N 35°29' E 139°56'0 0.1
2018-Apr-24 08:58N 35°29' E 139°56'0 0.0
2018-Apr-24 08:25N 35°29' E 139°56'0 0.0
2018-Apr-24 07:58N 35°29' E 139°56'0 0.0
2018-Apr-24 06:49N 35°29' E 139°56'0 0.0
2018-Apr-24 06:25N 35°29' E 139°56'0 0.0
2018-Apr-24 05:58N 35°29' E 139°56'0 0.0
2018-Apr-24 05:30N 35°29' E 139°56'2 3.7
2018-Apr-24 05:01N 35°29' E 139°54'612.0
2018-Apr-24 04:30N 35°25' E 139°48'2 4.1
2018-Apr-24 03:59N 35°25' E 139°45'0 0.0
2018-Apr-24 03:29N 35°25' E 139°45'0 0.0
2018-Apr-24 02:59N 35°25' E 139°45'0 0.0
2018-Apr-24 02:29N 35°25' E 139°45'0 0.0
2018-Apr-24 02:00N 35°25' E 139°45'510.0
2018-Apr-24 01:30N 35°29' E 139°42'1 1.8
2018-Apr-24 01:00N 35°28' E 139°42'4 7.7
2018-Apr-24 00:31N 35°24' E 139°44'1 1.6
2018-Apr-24 00:00N 35°24' E 139°44'0 0.0
2018-Apr-23 23:31N 35°24' E 139°44'0 0.0
2018-Apr-23 23:00N 35°24' E 139°44'0 0.1
2018-Apr-23 22:27N 35°24' E 139°44'0 0.0
2018-Apr-23 22:01N 35°24' E 139°44'0 0.0
2018-Apr-23 21:30N 35°24' E 139°44'0 0.0
2018-Apr-23 21:01N 35°24' E 139°44'0 0.0
2018-Apr-23 20:30N 35°24' E 139°44'0 0.0
2018-Apr-23 20:01N 35°24' E 139°44'0 0.0
2018-Apr-23 19:30N 35°24' E 139°44'0 0.0
2018-Apr-23 19:00N 35°24' E 139°44'0 0.0
2018-Apr-23 18:28N 35°24' E 139°44'0 0.0
2018-Apr-23 18:00N 35°24' E 139°44'0 0.0
2018-Apr-23 17:30N 35°24' E 139°44'0 0.0
2018-Apr-23 17:00N 35°24' E 139°44'0 0.0
2018-Apr-23 16:30N 35°24' E 139°44'0 0.0
2018-Apr-23 16:00N 35°24' E 139°44'0 0.0
2018-Apr-23 15:30N 35°24' E 139°44'0 0.0
2018-Apr-23 15:00N 35°24' E 139°44'0 0.0
2018-Apr-23 14:30N 35°24' E 139°44'0 0.0
2018-Apr-23 14:00N 35°24' E 139°44'0 0.1
2018-Apr-23 13:30N 35°24' E 139°44'0 0.0
2018-Apr-23 13:00N 35°24' E 139°44'0 0.0
2018-Apr-23 12:30N 35°24' E 139°44'0 0.1
2018-Apr-23 12:01N 35°24' E 139°44'510.3
2018-Apr-23 11:30N 35°18' E 139°44'611.8
2018-Apr-23 11:00N 35°13' E 139°47'612.1
2018-Apr-23 10:30N 35°07' E 139°46'612.0
2018-Apr-23 10:00N 35°03' E 139°40'612.6
2018-Apr-23 09:30N 34°59' E 139°34'713.4
2018-Apr-23 08:59N 34°55' E 139°27'714.1
2018-Apr-23 08:30N 34°51' E 139°20'814.0
2018-Apr-23 07:57N 34°46' E 139°13'614.3
2018-Apr-23 07:30N 34°42' E 139°07'713.0
2018-Apr-23 06:58N 34°38' E 139°01'613.0
2018-Apr-23 06:29N 34°35' E 138°54'611.8
2018-Apr-23 05:58N 34°36' E 138°47'612.3
2018-Apr-23 05:30N 34°41' E 138°43'611.8
2018-Apr-23 05:01N 34°47' E 138°42'611.7
2018-Apr-23 04:30N 34°52' E 138°42'611.9
2018-Apr-23 04:00N 34°58' E 138°42'611.9
2018-Apr-23 03:30N 35°04' E 138°42'4 5.6
2018-Apr-23 02:46N 35°09' E 138°42'0 0.0
2018-Apr-23 02:22N 35°09' E 138°42'0 0.0
2018-Apr-23 01:40N 35°09' E 138°42'0 0.0
2018-Apr-23 00:40N 35°09' E 138°42'0 0.2
2018-Apr-23 00:28N 35°09' E 138°42'0 1.0
2018-Apr-23 00:00N 35°08' E 138°42'2 3.7
2018-Apr-22 23:30N 35°06' E 138°41'5 9.2
2018-Apr-22 23:01N 35°04' E 138°36'3 6.8
2018-Apr-22 22:30N 35°03' E 138°32'0 0.0
2018-Apr-22 22:00N 35°03' E 138°32'0 0.0
2018-Apr-22 21:30N 35°03' E 138°32'0 0.0
2018-Apr-22 21:00N 35°03' E 138°32'0 0.0
2018-Apr-22 20:31N 35°03' E 138°32'0 0.0
2018-Apr-22 20:00N 35°03' E 138°32'0 0.0
2018-Apr-22 19:30N 35°03' E 138°32'0 0.1
2018-Apr-22 19:00N 35°03' E 138°32'0 0.0
2018-Apr-22 18:27N 35°03' E 138°32'0 0.0
2018-Apr-22 17:57N 35°03' E 138°32'0 0.0
2018-Apr-22 17:30N 35°03' E 138°32'0 0.0
2018-Apr-22 16:48N 35°03' E 138°32'0 0.0
2018-Apr-22 16:30N 35°03' E 138°32'0 0.0
2018-Apr-22 16:00N 35°03' E 138°32'0 0.0
2018-Apr-22 15:30N 35°03' E 138°32'0 0.0
2018-Apr-22 15:00N 35°03' E 138°32'0 0.0
2018-Apr-22 14:30N 35°03' E 138°32'1 1.1
2018-Apr-22 14:01N 35°02' E 138°32'611.4
2018-Apr-22 13:31N 34°57' E 138°35'611.3
2018-Apr-22 13:01N 34°52' E 138°38'611.5
2018-Apr-22 12:30N 34°47' E 138°40'610.9
2018-Apr-22 11:57N 34°41' E 138°43'610.5
2018-Apr-22 11:25N 34°36' E 138°47'6 9.5
2018-Apr-22 10:45N 34°35' E 138°54'3 9.7
2018-Apr-22 10:29N 34°36' E 138°57'611.6
2018-Apr-22 10:00N 34°40' E 139°02'710.9
2018-Apr-22 09:22N 34°45' E 139°09'410.5
2018-Apr-22 09:00N 34°47' E 139°12'5 9.4
2018-Apr-22 08:30N 34°50' E 139°17'4 8.4
2018-Apr-22 08:00N 34°52' E 139°21'4 8.2
2018-Apr-22 07:30N 34°55' E 139°25'4 8.8
2018-Apr-22 07:00N 34°58' E 139°29'5 9.6
2018-Apr-22 06:30N 35°01' E 139°33'510.0
2018-Apr-22 06:00N 35°04' E 139°38'510.4
2018-Apr-22 05:30N 35°08' E 139°43'611.4
2018-Apr-22 05:00N 35°13' E 139°46'611.4
2018-Apr-22 04:30N 35°18' E 139°44'611.2
2018-Apr-22 04:00N 35°23' E 139°42'611.4
2018-Apr-22 03:30N 35°27' E 139°48'611.3
2018-Apr-22 03:00N 35°30' E 139°54'611.1
2018-Apr-22 02:31N 35°30' E 140°00'0 0.0
2018-Apr-22 02:00N 35°30' E 140°00'1 2.1
2018-Apr-22 01:24N 35°30' E 140°02'0 0.0
2018-Apr-22 01:00N 35°30' E 140°02'0 0.0
2018-Apr-22 00:30N 35°30' E 140°02'0 0.0
2018-Apr-22 00:00N 35°30' E 140°02'0 0.0
2018-Apr-21 23:30N 35°30' E 140°02'0 0.2
2018-Apr-21 23:00N 35°30' E 140°02'2 4.6
2018-Apr-21 22:31N 35°31' E 139°60'2 3.9
2018-Apr-21 22:00N 35°33' E 140°01'5 9.4
2018-Apr-21 21:30N 35°36' E 140°06'1 1.0
2018-Apr-21 21:00N 35°36' E 140°06'0 0.0
2018-Apr-21 20:30N 35°36' E 140°06'0 0.0
2018-Apr-21 20:00N 35°36' E 140°06'0 0.0
2018-Apr-21 19:30N 35°36' E 140°06'0 0.0
2018-Apr-21 19:00N 35°36' E 140°06'0 0.0
2018-Apr-21 18:30N 35°36' E 140°06'0 0.0
2018-Apr-21 18:00N 35°36' E 140°06'0 0.0
2018-Apr-21 17:30N 35°36' E 140°06'0 0.0
2018-Apr-21 17:00N 35°36' E 140°06'0 0.0
2018-Apr-21 16:30N 35°36' E 140°06'0 0.0
2018-Apr-21 16:00N 35°36' E 140°06'0 0.0
2018-Apr-21 15:30N 35°36' E 140°06'0 0.0
2018-Apr-21 15:00N 35°36' E 140°06'0 0.0
2018-Apr-21 14:30N 35°36' E 140°06'0 0.0
2018-Apr-21 14:00N 35°36' E 140°06'0 0.0
2018-Apr-21 13:30N 35°36' E 140°06'0 0.0
2018-Apr-21 13:00N 35°36' E 140°06'0 0.0
2018-Apr-21 12:30N 35°36' E 140°06'0 0.0
2018-Apr-21 12:00N 35°36' E 140°06'0 0.0
2018-Apr-21 11:30N 35°36' E 140°06'0 0.0
2018-Apr-21 11:00N 35°36' E 140°06'0 0.0
2018-Apr-21 10:30N 35°36' E 140°06'0 0.0
2018-Apr-21 10:00N 35°36' E 140°06'0 0.0
2018-Apr-21 09:30N 35°36' E 140°06'0 0.0
2018-Apr-21 09:00N 35°36' E 140°06'0 0.0
2018-Apr-21 08:30N 35°36' E 140°06'0 0.0
2018-Apr-21 08:00N 35°36' E 140°06'0 0.0
2018-Apr-21 07:30N 35°36' E 140°06'0 0.0
2018-Apr-21 07:00N 35°36' E 140°06'0 0.0
2018-Apr-21 06:30N 35°36' E 140°06'0 0.0
2018-Apr-21 06:00N 35°36' E 140°06'0 0.0
2018-Apr-21 05:30N 35°36' E 140°06'0 0.0
2018-Apr-21 05:00N 35°36' E 140°06'0 0.0
2018-Apr-21 04:30N 35°36' E 140°06'0 0.0
2018-Apr-21 04:00N 35°36' E 140°06'0 0.0
2018-Apr-21 03:30N 35°36' E 140°06'0 0.0
2018-Apr-21 03:00N 35°36' E 140°06'0 0.0
2018-Apr-21 02:30N 35°36' E 140°06'0 0.0
2018-Apr-21 02:00N 35°36' E 140°06'0 0.0
2018-Apr-21 01:30N 35°36' E 140°06'0 0.0
2018-Apr-21 01:00N 35°36' E 140°06'0 0.0
2018-Apr-21 00:30N 35°36' E 140°06'0 0.0
2018-Apr-21 00:00N 35°36' E 140°06'0 0.3
2018-Apr-20 23:30N 35°36' E 140°06'2 4.5
2018-Apr-20 22:59N 35°35' E 140°04'0 0.0
2018-Apr-20 22:29N 35°35' E 140°04'0 0.0
2018-Apr-20 21:59N 35°35' E 140°04'0 0.0
2018-Apr-20 21:29N 35°35' E 140°04'0 0.0
2018-Apr-20 20:59N 35°35' E 140°04'0 0.0
2018-Apr-20 20:29N 35°35' E 140°04'2 4.2
2018-Apr-20 20:00N 35°34' E 140°02'612.1
2018-Apr-20 19:30N 35°31' E 139°55'612.0
2018-Apr-20 19:01N 35°27' E 139°49'611.7
2018-Apr-20 18:30N 35°22' E 139°45'611.0
2018-Apr-20 18:00N 35°17' E 139°46'611.1
2018-Apr-20 17:30N 35°11' E 139°47'611.8
2018-Apr-20 17:00N 35°05' E 139°45'611.8
2018-Apr-20 16:30N 34°60' E 139°44'610.5
2018-Apr-20 15:54N 34°54' E 139°47'1011.2
2018-Apr-20 15:03N 34°54' E 139°59'311.7
2018-Apr-20 14:47N 34°56' E 140°02'411.5
2018-Apr-20 14:29N 34°58' E 140°06'611.3
2018-Apr-20 13:57N 35°01' E 140°12'1410.5
2018-Apr-20 12:35N 35°10' E 140°26'210.3
2018-Apr-20 12:21N 35°12' E 140°27'  

Dump ship's entire track history